createdAt,value
2023-04-11T00:01:14.809Z,7.00
2023-04-11T00:03:41.702Z,8.30
2023-04-11T00:06:08.621Z,8.57
2023-04-11T00:08:35.207Z,9.40
2023-04-11T00:11:01.817Z,9.52
2023-04-11T00:13:28.491Z,9.65
2023-04-11T00:15:55.728Z,9.05
2023-04-11T00:18:22.976Z,8.07
2023-04-11T00:20:49.670Z,11.52
2023-04-11T00:23:16.360Z,10.68
2023-04-11T00:25:43.117Z,13.07
2023-04-11T00:28:10.429Z,11.63
2023-04-11T00:30:37.143Z,10.60
2023-04-11T00:33:04.046Z,11.18
2023-04-11T00:35:34.497Z,14.75
2023-04-11T00:38:02.141Z,11.73
2023-04-11T00:40:28.868Z,11.57
2023-04-11T00:42:56.508Z,12.52
2023-04-11T00:45:23.233Z,11.35
2023-04-11T00:47:50.581Z,13.57
2023-04-11T00:50:18.298Z,16.63
2023-04-11T00:52:49.529Z,11.98
2023-04-11T00:55:16.587Z,10.15
2023-04-11T00:57:44.571Z,13.05
2023-04-11T01:00:12.074Z,11.00
2023-04-11T01:02:42.984Z,15.57
2023-04-11T01:05:11.231Z,13.00
2023-04-11T01:07:39.198Z,15.40
2023-04-11T01:10:06.869Z,15.27
2023-04-11T01:12:34.835Z,9.82
2023-04-11T01:15:01.746Z,13.32
2023-04-11T01:17:28.726Z,12.20
2023-04-11T01:19:55.441Z,19.70
2023-04-11T01:22:23.134Z,14.10
2023-04-11T01:24:50.576Z,14.13
2023-04-11T01:27:17.488Z,13.93
2023-04-11T01:29:44.103Z,15.95
2023-04-11T01:32:10.717Z,15.80
2023-04-11T01:34:40.914Z,18.35
2023-04-11T01:37:07.961Z,16.48
2023-04-11T01:39:34.603Z,19.88
2023-04-11T01:42:03.458Z,18.35
2023-04-11T01:44:32.077Z,13.10
2023-04-11T01:46:59.225Z,16.38
2023-04-11T01:49:26.330Z,16.80
2023-04-11T01:51:53.029Z,17.23
2023-04-11T01:54:19.686Z,18.00
2023-04-11T01:56:46.767Z,16.13
2023-04-11T01:59:13.442Z,14.45
2023-04-11T02:01:43.211Z,15.82
2023-04-11T02:04:10.511Z,19.92
2023-04-11T02:06:38.531Z,22.50
2023-04-11T02:09:05.111Z,18.35
2023-04-11T02:11:31.748Z,17.15
2023-04-11T02:13:58.344Z,16.75
2023-04-11T02:16:25.720Z,22.25
2023-04-11T02:18:52.961Z,18.00
2023-04-11T02:21:19.545Z,23.02
2023-04-11T02:23:46.123Z,20.67
2023-04-11T02:26:12.737Z,18.75
2023-04-11T02:28:39.352Z,18.70
2023-04-11T02:31:06.332Z,17.17
2023-04-11T02:33:32.930Z,20.35
2023-04-11T02:35:59.589Z,16.40
2023-04-11T02:38:26.446Z,19.73
2023-04-11T02:40:53.012Z,17.48
2023-04-11T02:43:19.610Z,19.33
2023-04-11T02:45:46.707Z,22.63
2023-04-11T02:48:13.827Z,19.73
2023-04-11T02:50:40.832Z,18.75
2023-04-11T02:53:07.693Z,17.65
2023-04-11T02:55:34.882Z,14.88
2023-04-11T02:58:01.600Z,23.92
2023-04-11T03:00:29.148Z,16.67
2023-04-11T03:02:56.731Z,21.70
2023-04-11T03:05:23.508Z,15.85
2023-04-11T03:07:50.229Z,18.67
2023-04-11T03:10:16.870Z,21.48
2023-04-11T03:12:43.461Z,18.63
2023-04-11T03:15:10.549Z,16.42
2023-04-11T03:17:37.307Z,18.67
2023-04-11T03:20:07.080Z,19.48
2023-04-11T03:22:33.743Z,19.92
2023-04-11T03:25:00.506Z,18.83
2023-04-11T03:27:27.289Z,23.45
2023-04-11T03:29:53.953Z,18.38
2023-04-11T03:32:20.605Z,17.50
2023-04-11T03:34:47.177Z,18.08
2023-04-11T03:37:13.751Z,18.65
2023-04-11T03:39:40.354Z,19.38
2023-04-11T03:42:06.995Z,18.60
2023-04-11T03:44:33.610Z,21.20
2023-04-11T03:47:00.269Z,21.48
2023-04-11T03:49:26.895Z,16.17
2023-04-11T03:51:53.467Z,18.23
2023-04-11T03:54:20.378Z,26.25
2023-04-11T03:56:46.947Z,20.55
2023-04-11T03:59:13.608Z,20.83
2023-04-11T04:01:40.328Z,18.13
2023-04-11T04:04:07.604Z,15.25
2023-04-11T04:06:34.400Z,13.38
2023-04-11T04:09:01.011Z,15.88
2023-04-11T04:11:27.623Z,17.02
2023-04-11T04:13:55.444Z,16.50
2023-04-11T04:16:22.456Z,18.17
2023-04-11T04:18:49.202Z,14.13
2023-04-11T04:21:16.586Z,22.90
2023-04-11T04:23:47.271Z,17.15
2023-04-11T04:26:16.203Z,16.40
2023-04-11T04:28:46.461Z,20.92
2023-04-11T04:31:15.370Z,18.10
2023-04-11T04:33:42.827Z,14.95
2023-04-11T04:36:12.240Z,18.00
2023-04-11T04:38:42.072Z,17.70
2023-04-11T04:41:14.833Z,23.30
2023-04-11T04:43:42.529Z,18.90
2023-04-11T04:46:10.822Z,21.80
2023-04-11T04:48:37.539Z,12.60
2023-04-11T04:51:05.498Z,17.77
2023-04-11T04:53:34.590Z,18.77
2023-04-11T04:56:02.133Z,22.63
2023-04-11T04:58:28.781Z,19.10
2023-04-11T05:00:55.926Z,14.25
2023-04-11T05:03:23.364Z,15.88
2023-04-11T05:05:50.474Z,13.70
2023-04-11T05:08:19.488Z,16.65
2023-04-11T05:10:46.132Z,19.17
2023-04-11T05:13:12.745Z,20.33
2023-04-11T05:15:39.351Z,14.55
2023-04-11T05:18:06.174Z,17.30
2023-04-11T05:20:33.230Z,14.95
2023-04-11T05:22:59.804Z,16.58
2023-04-11T05:25:27.025Z,16.65
2023-04-11T05:27:53.699Z,16.55
2023-04-11T05:30:20.463Z,18.05
2023-04-11T05:32:47.626Z,14.63
2023-04-11T05:35:14.391Z,20.13
2023-04-11T05:37:42.897Z,18.60
2023-04-11T05:40:09.947Z,20.05
2023-04-11T05:42:36.600Z,15.95
2023-04-11T05:45:03.252Z,14.73
2023-04-11T05:47:29.878Z,14.52
2023-04-11T05:49:56.482Z,19.45
2023-04-11T05:52:23.213Z,18.80
2023-04-11T05:54:49.856Z,15.40
2023-04-11T05:57:17.446Z,15.68
2023-04-11T05:59:44.116Z,18.42
2023-04-11T06:02:10.871Z,17.23
2023-04-11T06:04:37.981Z,16.42
2023-04-11T06:07:04.839Z,19.40
2023-04-11T06:09:33.463Z,16.23
2023-04-11T06:12:01.342Z,18.42
2023-04-11T06:14:27.914Z,17.40
2023-04-11T06:16:54.552Z,17.15
2023-04-11T06:19:21.179Z,21.65
2023-04-11T06:21:47.780Z,19.42
2023-04-11T06:24:18.411Z,15.80
2023-04-11T06:26:45.453Z,17.23
2023-04-11T06:29:12.054Z,16.65
2023-04-11T06:31:40.249Z,20.52
2023-04-11T06:34:06.872Z,20.27
2023-04-11T06:36:33.466Z,16.77
2023-04-11T06:39:00.200Z,18.70
2023-04-11T06:41:26.782Z,18.00
2023-04-11T06:43:53.374Z,17.08
2023-04-11T06:46:19.977Z,16.60
2023-04-11T06:48:47.703Z,14.05
2023-04-11T06:51:14.281Z,16.02
2023-04-11T06:53:41.003Z,17.02
2023-04-11T06:56:08.287Z,16.50
2023-04-11T06:58:34.934Z,17.40
2023-04-11T07:01:01.570Z,18.13
2023-04-11T07:03:28.324Z,14.52
2023-04-11T07:05:55.118Z,18.65
2023-04-11T07:08:21.718Z,15.07
2023-04-11T07:10:48.275Z,12.50
2023-04-11T07:13:15.339Z,14.48
2023-04-11T07:15:41.944Z,15.95
2023-04-11T07:18:08.641Z,15.85
2023-04-11T07:20:36.016Z,15.02
2023-04-11T07:23:03.305Z,16.92
2023-04-11T07:25:36.769Z,17.35
2023-04-11T07:28:07.078Z,19.33
2023-04-11T07:30:34.980Z,15.32
2023-04-11T07:33:02.097Z,12.88
2023-04-11T07:35:29.032Z,16.88
2023-04-11T07:37:57.393Z,15.75
2023-04-11T07:40:24.229Z,11.88
2023-04-11T07:42:50.844Z,14.50
2023-04-11T07:45:17.495Z,14.77
2023-04-11T07:47:44.152Z,11.70
2023-04-11T07:50:11.234Z,15.82
2023-04-11T07:52:37.821Z,12.98
2023-04-11T07:55:04.975Z,13.02
2023-04-11T07:57:31.757Z,14.30
2023-04-11T08:00:01.730Z,12.45
2023-04-11T08:02:28.538Z,11.10
2023-04-11T08:04:55.541Z,13.65
2023-04-11T08:07:22.213Z,14.77
2023-04-11T08:09:48.777Z,14.13
2023-04-11T08:12:16.528Z,11.45
2023-04-11T08:14:43.134Z,12.90
2023-04-11T08:17:21.061Z,12.18
2023-04-11T08:19:54.109Z,13.32
2023-04-11T08:22:20.734Z,12.70
2023-04-11T08:24:47.322Z,11.02
2023-04-11T08:27:13.936Z,10.50
2023-04-11T08:29:40.582Z,13.63
2023-04-11T08:32:07.178Z,14.23
2023-04-11T08:34:33.952Z,16.45
2023-04-11T08:37:00.689Z,15.15
2023-04-11T08:39:27.297Z,11.10
2023-04-11T08:41:53.941Z,11.07
2023-04-11T08:44:21.195Z,11.85
2023-04-11T08:46:48.182Z,10.25
2023-04-11T08:49:14.851Z,13.85
2023-04-11T08:51:43.401Z,15.80
2023-04-11T08:54:10.397Z,10.00
2023-04-11T08:56:38.132Z,11.93
2023-04-11T08:59:04.713Z,11.32
2023-04-11T09:01:33.160Z,9.98
2023-04-11T09:04:01.252Z,11.90
2023-04-11T09:06:32.357Z,14.88
2023-04-11T09:08:59.880Z,13.07
2023-04-11T09:11:27.305Z,16.48
2023-04-11T09:14:08.190Z,13.52
2023-04-11T09:16:35.334Z,9.75
2023-04-11T09:19:02.127Z,10.10
2023-04-11T09:21:31.071Z,8.18
2023-04-11T09:24:17.738Z,10.57
2023-04-11T09:26:44.578Z,10.25
2023-04-11T09:29:11.361Z,13.52
2023-04-11T09:31:42.436Z,11.05
2023-04-11T09:34:09.414Z,12.77
2023-04-11T09:36:35.998Z,8.32
2023-04-11T09:39:18.953Z,13.20
2023-04-11T09:41:46.238Z,9.23
2023-04-11T09:44:13.271Z,11.65
2023-04-11T09:46:59.141Z,10.43
2023-04-11T09:49:26.062Z,11.35
2023-04-11T09:51:52.890Z,10.55
2023-04-11T09:54:22.706Z,10.32
2023-04-11T09:56:50.174Z,12.95
2023-04-11T09:59:17.249Z,14.50
2023-04-11T10:01:44.241Z,10.55
2023-04-11T10:04:11.398Z,14.40
2023-04-11T10:07:02.005Z,14.57
2023-04-11T10:09:29.727Z,13.15
2023-04-11T10:11:56.770Z,13.00
2023-04-11T10:14:38.381Z,14.68
2023-04-11T10:17:21.320Z,14.38
2023-04-11T10:19:51.510Z,10.77
2023-04-11T10:22:59.823Z,10.32
2023-04-11T10:25:27.027Z,12.38
2023-04-11T10:28:06.354Z,15.25
2023-04-11T10:30:42.136Z,11.00
2023-04-11T10:33:19.623Z,13.23
2023-04-11T10:36:05.816Z,17.75
2023-04-11T10:38:41.754Z,11.30
2023-04-11T10:41:34.679Z,11.13
2023-04-11T10:44:20.535Z,9.60
2023-04-11T10:46:56.154Z,12.43
2023-04-11T10:49:40.293Z,12.25
2023-04-11T10:52:21.894Z,15.93
2023-04-11T10:54:53.626Z,15.98
2023-04-11T10:57:21.446Z,10.38
2023-04-11T10:59:50.853Z,15.00
2023-04-11T11:02:19.421Z,11.85
2023-04-11T11:04:47.257Z,11.70
2023-04-11T11:07:17.872Z,10.38
2023-04-11T11:09:49.267Z,14.35
2023-04-11T11:12:17.126Z,12.43
2023-04-11T11:14:45.922Z,12.43
2023-04-11T11:17:14.275Z,8.93
2023-04-11T11:19:45.216Z,10.52
2023-04-11T11:22:25.297Z,10.93
2023-04-11T11:24:52.430Z,11.13
2023-04-11T11:27:22.383Z,12.00
2023-04-11T11:29:49.319Z,10.68
2023-04-11T11:32:26.249Z,11.65
2023-04-11T11:34:53.301Z,10.13
2023-04-11T11:37:21.245Z,9.57
2023-04-11T11:39:49.057Z,9.00
2023-04-11T11:42:15.925Z,10.95
2023-04-11T11:44:42.743Z,9.15
2023-04-11T11:47:17.617Z,11.80
2023-04-11T11:49:46.391Z,10.95
2023-04-11T11:52:30.864Z,9.98
2023-04-11T11:54:57.506Z,7.68
2023-04-11T11:57:24.153Z,11.63
2023-04-11T11:59:58.240Z,9.98
2023-04-11T12:02:26.598Z,7.97
2023-04-11T12:05:00.791Z,10.38
2023-04-11T12:07:32.738Z,12.48
2023-04-11T12:10:06.189Z,10.38
2023-04-11T12:12:37.384Z,10.57
2023-04-11T12:15:10.366Z,11.18
2023-04-11T12:17:38.016Z,7.45
2023-04-11T12:20:08.640Z,9.43
2023-04-11T12:22:35.765Z,9.90
2023-04-11T12:25:12.235Z,9.40
2023-04-11T12:27:41.604Z,10.82
2023-04-11T12:30:09.757Z,8.75
2023-04-11T12:32:36.665Z,12.15
2023-04-11T12:35:05.741Z,9.50
2023-04-11T12:37:33.335Z,9.43
2023-04-11T12:40:00.477Z,9.50
2023-04-11T12:42:27.630Z,10.32
2023-04-11T12:44:54.598Z,7.80
2023-04-11T12:47:21.286Z,11.40
2023-04-11T12:49:47.892Z,11.48
2023-04-11T12:52:14.593Z,15.70
2023-04-11T12:54:41.316Z,10.73
2023-04-11T12:57:07.983Z,13.40
2023-04-11T12:59:34.833Z,10.50
2023-04-11T13:02:01.736Z,13.25
2023-04-11T13:04:28.729Z,8.77
2023-04-11T13:07:00.693Z,10.50
2023-04-11T13:09:34.222Z,8.98
2023-04-11T13:12:03.717Z,15.68
2023-04-11T13:14:30.616Z,8.48
2023-04-11T13:16:57.404Z,6.28
2023-04-11T13:19:24.269Z,8.55
2023-04-11T13:21:50.998Z,6.78
2023-04-11T13:24:17.643Z,8.02
2023-04-11T13:26:44.933Z,10.00
2023-04-11T13:29:14.591Z,9.68
2023-04-11T13:31:41.310Z,7.57
2023-04-11T13:34:07.940Z,6.05
2023-04-11T13:36:35.415Z,8.90
2023-04-11T13:39:02.252Z,7.85
2023-04-11T13:41:28.857Z,7.82
2023-04-11T13:43:55.452Z,7.35
2023-04-11T13:46:22.076Z,8.30
2023-04-11T13:48:48.775Z,7.70
2023-04-11T13:51:15.490Z,8.23
2023-04-11T13:53:42.097Z,12.27
2023-04-11T13:56:08.839Z,9.07
2023-04-11T13:58:35.476Z,11.02
2023-04-11T14:01:02.253Z,10.88
2023-04-11T14:03:33.469Z,8.35
2023-04-11T14:06:01.162Z,7.13
2023-04-11T14:08:28.678Z,8.30
2023-04-11T14:10:55.533Z,11.73
2023-04-11T14:13:22.168Z,7.47
2023-04-11T14:15:52.189Z,15.70
2023-04-11T14:18:27.873Z,18.25
2023-04-11T14:20:56.551Z,10.90
2023-04-11T14:23:23.244Z,9.73
2023-04-11T14:25:50.597Z,10.52
2023-04-11T14:28:18.196Z,7.22
2023-04-11T14:30:44.964Z,10.15
2023-04-11T14:33:11.749Z,12.93
2023-04-11T14:35:38.382Z,10.70
2023-04-11T14:38:05.555Z,8.43
2023-04-11T14:40:32.167Z,11.98
2023-04-11T14:42:58.834Z,7.40
2023-04-11T14:45:25.668Z,6.78
2023-04-11T14:47:52.398Z,8.52
2023-04-11T14:50:19.225Z,14.07
2023-04-11T14:52:48.076Z,7.38
2023-04-11T14:55:14.689Z,6.80
2023-04-11T14:57:55.422Z,15.90
2023-04-11T15:00:24.624Z,8.23
2023-04-11T15:02:55.028Z,10.48
2023-04-11T15:05:23.086Z,8.93
2023-04-11T15:07:52.003Z,7.15
2023-04-11T15:10:21.494Z,7.68
2023-04-11T15:12:48.370Z,8.45
2023-04-11T15:15:15.631Z,8.65
2023-04-11T15:17:45.041Z,9.85
2023-04-11T15:20:12.337Z,8.60
2023-04-11T15:22:41.284Z,10.93
2023-04-11T15:25:10.475Z,9.52
2023-04-11T15:27:37.187Z,7.95
2023-04-11T15:30:04.772Z,9.48
2023-04-11T15:32:31.708Z,10.65
2023-04-11T15:34:59.113Z,6.75
2023-04-11T15:37:26.316Z,9.32
2023-04-11T15:39:53.084Z,11.20
2023-04-11T15:42:19.650Z,6.45
2023-04-11T15:44:46.347Z,6.63
2023-04-11T15:47:13.129Z,7.15
2023-04-11T15:49:39.838Z,13.13
2023-04-11T15:52:06.974Z,9.40
2023-04-11T15:54:33.703Z,7.18
2023-04-11T15:57:01.678Z,8.75
2023-04-11T15:59:28.414Z,12.90
2023-04-11T16:01:55.148Z,9.70
2023-04-11T16:04:21.973Z,16.63
2023-04-11T16:06:49.030Z,10.30
2023-04-11T16:09:16.218Z,10.13
2023-04-11T16:11:42.948Z,9.60
2023-04-11T16:14:11.037Z,9.18
2023-04-11T16:16:37.834Z,9.75
2023-04-11T16:19:05.112Z,9.18
2023-04-11T16:21:31.792Z,5.35
2023-04-11T16:23:58.832Z,11.88
2023-04-11T16:26:26.828Z,8.35
2023-04-11T16:28:53.402Z,11.10
2023-04-11T16:31:24.286Z,7.43
2023-04-11T16:33:52.651Z,8.85
2023-04-11T16:36:20.503Z,6.10
2023-04-11T16:38:49.517Z,9.23
2023-04-11T16:41:19.638Z,13.60
2023-04-11T16:43:46.282Z,9.35
2023-04-11T16:46:14.124Z,9.73
2023-04-11T16:48:41.824Z,10.93
2023-04-11T16:51:10.881Z,7.95
2023-04-11T16:53:38.266Z,8.93
2023-04-11T16:56:05.404Z,8.93
2023-04-11T16:58:32.194Z,7.40
2023-04-11T17:01:00.309Z,7.95
2023-04-11T17:03:27.376Z,10.00
2023-04-11T17:05:54.160Z,7.18
2023-04-11T17:08:21.030Z,9.90
2023-04-11T17:10:47.652Z,7.00
2023-04-11T17:13:15.791Z,7.35
2023-04-11T17:15:42.387Z,9.20
2023-04-11T17:18:08.986Z,11.25
2023-04-11T17:20:35.980Z,7.90
2023-04-11T17:23:02.716Z,9.68
2023-04-11T17:25:29.977Z,8.23
2023-04-11T17:27:57.366Z,10.02
2023-04-11T17:30:24.032Z,8.35
2023-04-11T17:32:50.753Z,9.48
2023-04-11T17:35:17.497Z,8.68
2023-04-11T17:37:44.096Z,11.05
2023-04-11T17:40:12.590Z,9.80
2023-04-11T17:42:40.008Z,10.60
2023-04-11T17:45:16.535Z,9.35
2023-04-11T17:47:44.761Z,7.78
2023-04-11T17:50:13.271Z,11.15
2023-04-11T17:52:44.542Z,8.00
2023-04-11T17:55:12.944Z,8.27
2023-04-11T17:57:39.850Z,11.10
2023-04-11T18:00:24.055Z,9.43
2023-04-11T18:02:54.460Z,9.00
2023-04-11T18:05:24.856Z,7.15
2023-04-11T18:07:54.094Z,10.63
2023-04-11T18:10:21.787Z,7.78
2023-04-11T18:12:51.398Z,6.50
2023-04-11T18:15:18.582Z,7.45
2023-04-11T18:17:45.511Z,6.53
2023-04-11T18:20:13.187Z,8.32
2023-04-11T18:22:42.373Z,6.90
2023-04-11T18:25:09.478Z,5.97
2023-04-11T18:27:37.147Z,5.68
2023-04-11T18:30:07.264Z,9.70
2023-04-11T18:32:40.332Z,8.57
2023-04-11T18:35:11.277Z,10.18
2023-04-11T18:37:40.390Z,5.78
2023-04-11T18:40:11.769Z,9.82
2023-04-11T18:42:49.765Z,5.72
2023-04-11T18:45:20.134Z,6.00
2023-04-11T18:47:47.003Z,5.57
2023-04-11T18:50:14.742Z,7.68
2023-04-11T18:52:41.590Z,8.95
2023-04-11T18:55:09.929Z,6.80
2023-04-11T18:57:38.110Z,10.27
2023-04-11T19:00:13.213Z,7.70
2023-04-11T19:02:41.337Z,4.78
2023-04-11T19:05:13.370Z,8.10
2023-04-11T19:07:42.164Z,7.10
2023-04-11T19:10:10.162Z,7.50
2023-04-11T19:12:37.397Z,9.55
2023-04-11T19:15:07.569Z,7.63
2023-04-11T19:17:36.003Z,8.10
2023-04-11T19:20:06.674Z,9.25
2023-04-11T19:22:34.549Z,6.82
2023-04-11T19:25:01.277Z,6.57
2023-04-11T19:27:27.951Z,8.02
2023-04-11T19:29:54.605Z,5.57
2023-04-11T19:32:21.174Z,6.40
2023-04-11T19:34:49.398Z,9.98
2023-04-11T19:37:19.050Z,7.85
2023-04-11T19:39:45.735Z,8.68
2023-04-11T19:42:12.474Z,6.78
2023-04-11T19:44:39.660Z,9.52
2023-04-11T19:47:06.396Z,5.72
2023-04-11T19:49:33.038Z,5.88
2023-04-11T19:51:59.626Z,5.50
2023-04-11T19:54:26.191Z,6.28
2023-04-11T19:56:53.339Z,4.90
2023-04-11T19:59:20.247Z,6.95
2023-04-11T20:01:47.071Z,8.52
2023-04-11T20:04:15.598Z,8.10
2023-04-11T20:06:44.078Z,5.97
2023-04-11T20:09:11.543Z,10.43
2023-04-11T20:11:39.130Z,7.20
2023-04-11T20:14:06.622Z,7.68
2023-04-11T20:16:33.518Z,9.45
2023-04-11T20:19:01.794Z,9.45
2023-04-11T20:21:28.466Z,6.03
2023-04-11T20:23:55.233Z,7.95
2023-04-11T20:26:22.369Z,7.75
2023-04-11T20:28:50.253Z,8.93
2023-04-11T20:31:16.958Z,7.45
2023-04-11T20:33:44.148Z,6.35
2023-04-11T20:36:11.301Z,7.28
2023-04-11T20:38:37.988Z,8.38
2023-04-11T20:41:05.575Z,8.65
2023-04-11T20:43:32.363Z,8.52
2023-04-11T20:45:59.034Z,8.00
2023-04-11T20:48:25.785Z,5.65
2023-04-11T20:50:55.635Z,7.07
2023-04-11T20:53:22.242Z,7.03
2023-04-11T20:55:48.928Z,9.65
2023-04-11T20:58:18.450Z,8.07
2023-04-11T21:00:45.349Z,9.13
2023-04-11T21:03:12.380Z,7.07
2023-04-11T21:05:43.944Z,6.30
2023-04-11T21:08:13.778Z,8.13
2023-04-11T21:10:40.645Z,5.75
2023-04-11T21:13:07.284Z,4.78
2023-04-11T21:15:34.533Z,6.03
2023-04-11T21:18:01.223Z,7.03
2023-04-11T21:20:27.886Z,6.32
2023-04-11T21:22:54.661Z,5.72
2023-04-11T21:25:21.897Z,5.25
2023-04-11T21:27:49.717Z,6.78
2023-04-11T21:30:16.343Z,6.15
2023-04-11T21:32:43.092Z,7.68
2023-04-11T21:35:11.208Z,5.70
2023-04-11T21:37:38.257Z,6.00
2023-04-11T21:40:05.494Z,8.68
2023-04-11T21:42:32.114Z,6.50
2023-04-11T21:44:58.727Z,6.60
2023-04-11T21:47:25.550Z,7.18
2023-04-11T21:49:52.298Z,5.85
2023-04-11T21:52:18.985Z,5.40
2023-04-11T21:54:46.879Z,5.25
2023-04-11T21:57:13.562Z,6.40
2023-04-11T21:59:40.263Z,7.10
2023-04-11T22:02:07.014Z,7.25
2023-04-11T22:04:47.564Z,6.90
2023-04-11T22:07:26.404Z,7.25
2023-04-11T22:09:59.600Z,7.00
2023-04-11T22:12:26.894Z,6.85
2023-04-11T22:14:56.584Z,3.72
2023-04-11T22:17:23.710Z,8.55
2023-04-11T22:19:50.312Z,6.22
2023-04-11T22:22:20.190Z,8.43
2023-04-11T22:24:46.815Z,4.60
2023-04-11T22:27:13.573Z,8.40
2023-04-11T22:29:41.223Z,4.30
2023-04-11T22:32:08.178Z,3.38
2023-04-11T22:34:35.002Z,6.60
2023-04-11T22:37:01.581Z,6.22
2023-04-11T22:39:28.183Z,5.57
2023-04-11T22:41:55.324Z,6.80
2023-04-11T22:44:21.941Z,6.78
2023-04-11T22:47:06.487Z,8.68
2023-04-11T22:49:40.568Z,6.70
2023-04-11T22:52:14.748Z,7.53
2023-04-11T22:54:42.544Z,5.90
2023-04-11T22:57:09.520Z,6.00
2023-04-11T22:59:36.726Z,5.68
2023-04-11T23:02:03.697Z,7.10
2023-04-11T23:04:32.078Z,7.90
2023-04-11T23:06:59.031Z,8.65
2023-04-11T23:09:26.164Z,7.05
2023-04-11T23:11:53.305Z,3.67
2023-04-11T23:14:22.044Z,2.92
2023-04-11T23:16:48.947Z,7.72
2023-04-11T23:19:17.048Z,4.75
2023-04-11T23:21:44.436Z,6.70
2023-04-11T23:24:11.083Z,4.07
2023-04-11T23:26:37.716Z,6.22
2023-04-11T23:29:04.626Z,8.52
2023-04-11T23:31:32.518Z,5.22
2023-04-11T23:34:00.344Z,5.53
2023-04-11T23:36:27.831Z,6.20
2023-04-11T23:38:54.536Z,7.10
2023-04-11T23:41:21.193Z,6.38
2023-04-11T23:43:47.825Z,6.03
2023-04-11T23:46:14.630Z,9.13
2023-04-11T23:48:41.420Z,4.53
2023-04-11T23:51:08.232Z,5.35
2023-04-11T23:53:34.912Z,6.15
2023-04-11T23:56:01.633Z,7.13
2023-04-11T23:58:28.249Z,6.50
